Annapolis, MD (21403)

8:38 AM EST on February 08, 2016 (GMT -0500)
Eastport | | Change Station
CLOSE
Current Station
Personal Weather Station
Location: Annapolis, MD
Elevation: 33 ft
Nearby Weather Stations
Active Advisory: Winter Storm Watch

Elev 33 ft 38.96 °N, 76.49 °W | Updated 7 seconds ago

Mostly Cloudy
Mostly Cloudy
37.4 °F
Feels Like 37 °F
N
0.4
Wind Variable Wind from North
Gusts 2.5 mph

Today
High -- | Low -- °F
--% Chance of Precip.
Yesterday
High -- | Low -- °F
Precip. -- in
Pressure 29.82 in
Visibility 10.0 miles
Clouds Clear
Windchill 37 °F
Dew Point 18 °F
Humidity 45%
Rainfall 0.00 in
Snow Depth Not available.
7:05 AM 5:34 PM
Waning Crescent, 0% visible
METAR KNAK 081254Z AUTO 32007KT 10SM CLR 03/M03 A2981 RMK AO2 SLP096 T00281033
Pressure 29.82 in
Visibility 10.0 miles
Clouds Clear
Windchill 37 °F
Dew Point 18 °F
Humidity 45%
Rainfall 0.00 in
Snow Depth Not available.
7:05 AM 5:34 PM
Waning Crescent, 0% visible
METAR KNAK 081254Z AUTO 32007KT 10SM CLR 03/M03 A2981 RMK AO2 SLP096 T00281033

10-Day Weather Forecast

Almanac

Astronomy

Feb. 08, 2016 Rise Set
Actual Time
Civil Twilight
Nautical Twilight
Astronomical Twilight
Moon
Length of Visible Light
Length of Day
Tomorrow will be .
, % of the Moon is Illuminated

Today's Extremes

State Highs State Lows

Community

WunderPhotos

Upload Photos

1,891,434 photos uploaded!

WunderBlog® & News

Nearby

Air Quality

  Air Quality AQ Index Pollutant
Not available.

Snow Depth

Station Depth Elevation

Earthquake Activity

City Distance Mag. Time & Date
Minimum magnitude displayed is 2.5.

Coastal Water Temperatures

Place Temperature

Stations

Nearby Weather Stations

Station Location Temp. Windchill Dew Point Humidity Wind Precip. Elev Updated Type
                   

Watches & Warnings

Winter Storm Watch
Issued: 3:46 AM EST Feb. 8, 2016 – National Weather Service

... Winter Storm Watch in effect from late tonight through late
Tuesday night...

The National Weather Service in Baltimore MD/Washington has
issued a Winter Storm Watch... which is in effect from late
tonight through late Tuesday night.

* Hazard type... snow with periods of heavy snow.

* Accumulations... snow accumulation of 6 to 9 inches.

* Timing... precipitation will begin later today... initially as
rain or a rain/snow mix. The precipitation will transition to
all snow tonight and last through Tuesday night... with periods
of heavy snow during this time.

* Impacts... roads will become snow covered... resulting in
hazardous travel conditions.

* Winds... northwest 5 to 10 mph.

* Temperatures... in the lower 30s.

Precautionary/preparedness actions...

A Winter Storm Watch means there is a potential for significant
snow accumulations that may impact travel. Continue to monitor
the latest forecasts.